Time,TemperatureF,DewpointF,PressureIn,WindDirection,WindDirectionDegrees,WindSpeedMPH,WindSpeedGustMPH,Humidity,HourlyPrecipIn,Conditions,Clouds,dailyrainin,SoftwareType,DateUTC
2013-06-11 00:10:00,70.3,69.7,29.78,NE,45,0.0,-999.0,98,-99.99,,,0.02,Acu-Link.com,2013-06-11 04:10:00,
2013-06-11 00:26:00,70.2,69.6,29.78,NE,45,0.0,-999.0,98,-99.99,,,0.02,Acu-Link.com,2013-06-11 04:26:00,
2013-06-11 00:41:00,70.0,69.4,29.78,NNW,337,0.0,-999.0,98,-99.99,,,0.02,Acu-Link.com,2013-06-11 04:41:00,
2013-06-11 00:56:00,70.0,69.4,29.78,SSW,202,0.0,-999.0,98,-99.99,,,0.02,Acu-Link.com,2013-06-11 04:56:00,
2013-06-11 01:12:00,70.2,69.6,29.80,SSW,202,1.7,-999.0,98,-99.99,,,0.02,Acu-Link.com,2013-06-11 05:12:00,
2013-06-11 01:27:00,70.2,69.6,29.79,NNW,337,0.0,-999.0,98,-99.99,,,0.03,Acu-Link.com,2013-06-11 05:27:00,
2013-06-11 01:42:00,70.2,69.6,29.80,South,180,0.0,-999.0,98,-99.99,,,0.03,Acu-Link.com,2013-06-11 05:42:00,
2013-06-11 01:58:00,70.2,69.6,29.80,NNW,337,0.0,-999.0,98,-99.99,,,0.03,Acu-Link.com,2013-06-11 05:58:00,
2013-06-11 02:13:00,70.2,69.6,29.79,NNW,337,0.0,-999.0,98,-99.99,,,0.03,Acu-Link.com,2013-06-11 06:13:00,
2013-06-11 02:28:00,70.2,69.6,29.79,SW,225,0.0,-999.0,98,-99.99,,,0.03,Acu-Link.com,2013-06-11 06:28:00,
2013-06-11 02:43:00,70.2,69.6,29.78,South,180,0.0,-999.0,98,-99.99,,,0.03,Acu-Link.com,2013-06-11 06:43:00,
2013-06-11 02:59:00,70.0,69.4,29.78,NNW,337,0.0,-999.0,98,-99.99,,,0.03,Acu-Link.com,2013-06-11 06:59:00,
2013-06-11 03:14:00,69.6,69.0,29.79,South,180,0.0,-999.0,98,-99.99,,,0.03,Acu-Link.com,2013-06-11 07:14:00,
2013-06-11 03:29:00,69.6,69.0,29.79,SSW,202,0.0,-999.0,98,-99.99,,,0.03,Acu-Link.com,2013-06-11 07:29:00,
2013-06-11 03:45:00,69.6,69.0,29.79,West,270,0.0,-999.0,98,-99.99,,,0.04,Acu-Link.com,2013-06-11 07:45:00,
2013-06-11 04:00:00,69.6,69.0,29.80,SW,225,0.0,-999.0,98,-99.99,,,0.04,Acu-Link.com,2013-06-11 08:00:00,
2013-06-11 04:15:00,69.4,68.8,29.79,SW,225,0.0,-999.0,98,-99.99,,,0.04,Acu-Link.com,2013-06-11 08:15:00,
2013-06-11 04:30:00,69.3,68.7,29.79,SW,225,0.0,-999.0,98,-99.99,,,0.04,Acu-Link.com,2013-06-11 08:30:00,
2013-06-11 04:46:00,68.9,68.3,29.79,North,0,0.0,-999.0,98,-99.99,,,0.04,Acu-Link.com,2013-06-11 08:46:00,
2013-06-11 05:01:00,68.9,68.3,29.80,WSW,247,0.0,-999.0,98,-99.99,,,0.04,Acu-Link.com,2013-06-11 09:01:00,
2013-06-11 05:31:00,68.7,68.1,29.80,SW,225,0.0,-999.0,98,-99.99,,,0.04,Acu-Link.com,2013-06-11 09:31:00,
2013-06-11 05:46:00,68.9,68.3,29.81,WSW,247,0.0,-999.0,98,-99.99,,,0.04,Acu-Link.com,2013-06-11 09:46:00,
2013-06-11 06:17:00,69.3,68.7,29.81,West,270,0.0,-999.0,98,-99.99,,,0.04,Acu-Link.com,2013-06-11 10:17:00,
2013-06-11 06:32:00,69.4,68.8,29.81,NW,315,0.0,-999.0,98,-99.99,,,0.04,Acu-Link.com,2013-06-11 10:32:00,
2013-06-11 06:47:00,69.4,68.8,29.83,West,270,0.0,-999.0,98,-99.99,,,0.04,Acu-Link.com,2013-06-11 10:47:00,
2013-06-11 07:02:00,69.6,69.0,29.84,West,270,0.0,-999.0,98,-99.99,,,0.04,Acu-Link.com,2013-06-11 11:02:00,
2013-06-11 07:18:00,70.2,69.6,29.83,West,270,0.0,-999.0,98,-99.99,,,0.04,Acu-Link.com,2013-06-11 11:18:00,
2013-06-11 07:33:00,70.5,69.9,29.84,West,270,0.0,-999.0,98,-99.99,,,0.04,Acu-Link.com,2013-06-11 11:33:00,
2013-06-11 07:48:00,70.9,70.3,29.83,NE,45,0.0,-999.0,98,-99.99,,,0.04,Acu-Link.com,2013-06-11 11:48:00,
2013-06-11 08:04:00,71.2,70.6,29.84,NE,45,0.0,-999.0,98,-99.99,,,0.04,Acu-Link.com,2013-06-11 12:04:00,
2013-06-11 08:19:00,72.3,71.7,29.84,ENE,67,0.0,-999.0,98,-99.99,,,0.04,Acu-Link.com,2013-06-11 12:19:00,
2013-06-11 08:34:00,73.6,73.0,29.84,NE,45,0.0,-999.0,98,-99.99,,,0.04,Acu-Link.com,2013-06-11 12:34:00,
2013-06-11 08:49:00,74.8,74.2,29.85,WNW,292,0.0,-999.0,98,-99.99,,,0.04,Acu-Link.com,2013-06-11 12:49:00,
2013-06-11 09:05:00,75.9,75.3,29.85,ESE,112,0.0,-999.0,98,-99.99,,,0.04,Acu-Link.com,2013-06-11 13:05:00,
2013-06-11 09:20:00,78.4,74.9,29.85,ESE,112,0.0,-999.0,89,-99.99,,,0.04,Acu-Link.com,2013-06-11 13:20:00,
2013-06-11 09:35:00,78.1,74.2,29.86,NE,45,2.2,-999.0,88,-99.99,,,0.04,Acu-Link.com,2013-06-11 13:35:00,
2013-06-11 09:51:00,79.0,74.8,29.86,East,90,2.2,-999.0,87,-99.99,,,0.04,Acu-Link.com,2013-06-11 13:51:00,
2013-06-11 10:21:00,78.6,74.7,29.85,ESE,112,0.0,-999.0,88,-99.99,,,0.04,Acu-Link.com,2013-06-11 14:21:00,
2013-06-11 10:37:00,78.3,74.8,29.84,South,180,0.0,-999.0,89,-99.99,,,0.04,Acu-Link.com,2013-06-11 14:37:00,
2013-06-11 10:52:00,78.1,73.9,29.84,NE,45,1.7,-999.0,87,-99.99,,,0.04,Acu-Link.com,2013-06-11 14:52:00,
2013-06-11 11:07:00,78.4,73.9,29.85,ESE,112,1.7,-999.0,86,-99.99,,,0.04,Acu-Link.com,2013-06-11 15:07:00,
2013-06-11 11:22:00,81.0,74.6,29.86,ESE,112,2.2,-999.0,81,-99.99,,,0.04,Acu-Link.com,2013-06-11 15:22:00,
2013-06-11 11:37:00,80.6,74.9,29.85,ESE,112,0.0,-999.0,83,-99.99,,,0.04,Acu-Link.com,2013-06-11 15:37:00,
2013-06-11 11:53:00,82.0,75.2,29.85,SE,135,0.0,-999.0,80,-99.99,,,0.04,Acu-Link.com,2013-06-11 15:53:00,
2013-06-11 12:08:00,81.5,75.1,29.85,WNW,292,0.0,-999.0,81,-99.99,,,0.04,Acu-Link.com,2013-06-11 16:08:00,
2013-06-11 12:23:00,83.1,75.1,29.85,ESE,112,1.7,-999.0,77,-99.99,,,0.04,Acu-Link.com,2013-06-11 16:23:00,
2013-06-11 12:39:00,85.5,75.8,29.86,South,180,1.7,-999.0,73,-99.99,,,0.04,Acu-Link.com,2013-06-11 16:39:00,
2013-06-11 12:54:00,86.9,77.2,29.85,ESE,112,0.0,-999.0,73,-99.99,,,0.04,Acu-Link.com,2013-06-11 16:54:00,
2013-06-11 13:09:00,84.7,75.9,29.84,ESE,112,0.0,-999.0,75,-99.99,,,0.04,Acu-Link.com,2013-06-11 17:09:00,
2013-06-11 13:25:00,86.5,76.4,29.84,South,180,1.7,-999.0,72,-99.99,,,0.04,Acu-Link.com,2013-06-11 17:25:00,
2013-06-11 13:40:00,88.2,74.5,29.83,WSW,247,4.2,-999.0,64,-99.99,,,0.04,Acu-Link.com,2013-06-11 17:40:00,
2013-06-11 13:55:00,88.2,75.4,29.83,NNE,22,2.2,-999.0,66,-99.99,,,0.04,Acu-Link.com,2013-06-11 17:55:00,
2013-06-11 14:10:00,88.3,72.1,29.84,NNE,22,4.2,-999.0,59,-99.99,,,0.04,Acu-Link.com,2013-06-11 18:10:00,
2013-06-11 14:25:00,88.3,72.6,29.82,SW,225,0.0,-999.0,60,-99.99,,,0.04,Acu-Link.com,2013-06-11 18:25:00,
2013-06-11 14:41:00,89.8,71.4,29.82,SW,225,2.7,-999.0,55,-99.99,,,0.04,Acu-Link.com,2013-06-11 18:41:00,
2013-06-11 14:56:00,89.6,71.8,29.82,SSE,157,2.2,-999.0,56,-99.99,,,0.04,Acu-Link.com,2013-06-11 18:56:00,
2013-06-11 15:11:00,89.6,72.8,29.82,North,0,0.0,-999.0,58,-99.99,,,0.04,Acu-Link.com,2013-06-11 19:11:00,
2013-06-11 15:42:00,89.6,72.3,29.82,WNW,292,0.0,-999.0,57,-99.99,,,0.04,Acu-Link.com,2013-06-11 19:42:00,
2013-06-11 15:57:00,88.5,73.3,29.81,SW,225,0.0,-999.0,61,-99.99,,,0.04,Acu-Link.com,2013-06-11 19:57:00,
2013-06-11 16:12:00,89.8,75.0,29.82,North,0,0.0,-999.0,62,-99.99,,,0.04,Acu-Link.com,2013-06-11 20:12:00,
2013-06-11 16:28:00,90.7,72.8,29.81,NE,45,1.1,-999.0,56,-99.99,,,0.04,Acu-Link.com,2013-06-11 20:28:00,
2013-06-11 16:43:00,89.8,70.3,29.80,WSW,247,2.2,-999.0,53,-99.99,,,0.04,Acu-Link.com,2013-06-11 20:43:00,
2013-06-11 16:58:00,90.9,72.5,29.81,NNE,22,2.2,-999.0,55,-99.99,,,0.04,Acu-Link.com,2013-06-11 20:58:00,
2013-06-11 17:13:00,93.0,71.0,29.81,NW,315,1.7,-999.0,49,-99.99,,,0.04,Acu-Link.com,2013-06-11 21:13:00,
2013-06-11 17:28:00,91.9,72.3,29.81,SSW,202,0.0,-999.0,53,-99.99,,,0.04,Acu-Link.com,2013-06-11 21:28:00,
2013-06-11 17:44:00,91.8,71.1,29.80,WSW,247,0.0,-999.0,51,-99.99,,,0.04,Acu-Link.com,2013-06-11 21:44:00,
2013-06-11 17:59:00,90.5,70.4,29.80,SSW,202,2.2,-999.0,52,-99.99,,,0.04,Acu-Link.com,2013-06-11 21:59:00,
2013-06-11 18:14:00,90.9,71.9,29.79,WSW,247,0.0,-999.0,54,-99.99,,,0.04,Acu-Link.com,2013-06-11 22:14:00,
2013-06-11 18:30:00,89.8,70.3,29.79,North,0,0.0,-999.0,53,-99.99,,,0.04,Acu-Link.com,2013-06-11 22:30:00,
2013-06-11 18:45:00,89.6,71.3,29.79,SW,225,0.0,-999.0,55,-99.99,,,0.04,Acu-Link.com,2013-06-11 22:45:00,
2013-06-11 19:00:00,88.5,71.8,29.79,SSW,202,0.0,-999.0,58,-99.99,,,0.04,Acu-Link.com,2013-06-11 23:00:00,
2013-06-11 19:16:00,87.6,71.0,29.79,WNW,292,0.0,-999.0,58,-99.99,,,0.04,Acu-Link.com,2013-06-11 23:16:00,
2013-06-11 19:46:00,85.8,72.6,29.79,North,0,0.0,-999.0,65,-99.99,,,0.04,Acu-Link.com,2013-06-11 23:46:00,
2013-06-11 20:17:00,83.8,72.9,29.80,West,270,0.0,-999.0,70,-99.99,,,0.04,Acu-Link.com,2013-06-12 00:17:00,
2013-06-11 20:32:00,82.6,74.2,29.80,NW,315,0.0,-999.0,76,-99.99,,,0.04,Acu-Link.com,2013-06-12 00:32:00,
2013-06-11 20:47:00,81.3,73.8,29.80,NW,315,0.0,-999.0,78,-99.99,,,0.04,Acu-Link.com,2013-06-12 00:47:00,
2013-06-11 21:03:00,80.1,73.7,29.80,NW,315,0.0,-999.0,81,-99.99,,,0.04,Acu-Link.com,2013-06-12 01:03:00,
2013-06-11 21:18:00,79.0,73.7,29.80,West,270,0.0,-999.0,84,-99.99,,,0.04,Acu-Link.com,2013-06-12 01:18:00,
2013-06-11 21:33:00,77.9,73.0,29.81,West,270,0.0,-999.0,85,-99.99,,,0.04,Acu-Link.com,2013-06-12 01:33:00,
2013-06-11 21:48:00,77.0,72.8,29.82,West,270,0.0,-999.0,87,-99.99,,,0.04,Acu-Link.com,2013-06-12 01:48:00,
2013-06-11 22:04:00,76.5,72.7,29.82,West,270,0.0,-999.0,88,-99.99,,,0.04,Acu-Link.com,2013-06-12 02:04:00,
2013-06-11 22:19:00,75.7,72.2,29.83,West,270,0.0,-999.0,89,-99.99,,,0.04,Acu-Link.com,2013-06-12 02:19:00,
2013-06-11 22:34:00,75.4,72.3,29.83,West,270,0.0,-999.0,90,-99.99,,,0.04,Acu-Link.com,2013-06-12 02:34:00,
2013-06-11 22:49:00,75.0,71.9,29.83,West,270,0.0,-999.0,90,-99.99,,,0.04,Acu-Link.com,2013-06-12 02:49:00,
2013-06-11 23:05:00,74.5,71.7,29.83,West,270,0.0,-999.0,91,-99.99,,,0.04,Acu-Link.com,2013-06-12 03:05:00,
2013-06-11 23:20:00,73.9,71.1,29.83,West,270,0.0,-999.0,91,-99.99,,,0.04,Acu-Link.com,2013-06-12 03:20:00,
2013-06-11 23:35:00,73.8,71.3,29.84,WSW,247,0.0,-999.0,92,-99.99,,,0.04,Acu-Link.com,2013-06-12 03:35:00,
2013-06-11 23:51:00,73.4,71.2,29.83,WSW,247,0.0,-999.0,93,-99.99,,,0.04,Acu-Link.com,2013-06-12 03:51:00,